Time;durP1;ratioP1;P1;durP2;ratioP2;P2;SDS_P1;SDS_P2;PMS_P1;PMS_P2;Temp;Humidity;BMP_temperature;BMP_pressure;BME280_temperature;BME280_humidity;BME280_pressure;Samples;Min_cycle;Max_cycle;Signal;HPM_P1;HPM_P2
2024/03/15 00:00:40;;;;;;;14.23;7.70;;;;;;;10.82;74.35;95892.03;4986087;28;20195;-72
2024/03/15 00:03:05;;;;;;;10.10;8.17;;;;;;;10.90;73.49;95884.56;4985455;28;20411;-72
2024/03/15 00:05:31;;;;;;;24.60;11.13;;;;;;;10.78;73.86;95891.31;4986192;28;21090;-71
2024/03/15 00:07:57;;;;;;;26.17;15.27;;;;;;;10.76;73.87;95890.56;4987352;28;20731;-75
2024/03/15 00:10:22;;;;;;;22.67;13.37;;;;;;;10.77;73.54;95891.41;4986942;28;20204;-74
2024/03/15 00:12:49;;;;;;;26.23;12.90;;;;;;;10.63;73.76;95896.53;4987792;28;20177;-71
2024/03/15 00:15:15;;;;;;;24.40;12.60;;;;;;;10.67;73.61;95903.31;4988478;28;20264;-72
2024/03/15 00:17:42;;;;;;;17.17;11.40;;;;;;;10.61;74.48;95899.25;4986887;28;20439;-75
2024/03/15 00:20:08;;;;;;;21.37;12.23;;;;;;;10.52;74.35;95897.09;4986416;28;20168;-74
2024/03/15 00:22:34;;;;;;;16.90;10.90;;;;;;;10.56;74.46;95893.41;4986263;28;20492;-73
2024/03/15 00:25:00;;;;;;;18.70;11.17;;;;;;;10.53;74.62;95904.88;4986317;28;20419;-72
2024/03/15 00:27:25;;;;;;;14.93;11.60;;;;;;;10.43;74.58;95895.78;4984811;28;20205;-73
2024/03/15 00:29:51;;;;;;;16.30;12.23;;;;;;;10.40;74.62;95898.56;4986058;28;20424;-73
2024/03/15 00:32:16;;;;;;;18.70;11.47;;;;;;;10.35;74.75;95901.44;4985393;28;20191;-74
2024/03/15 00:34:42;;;;;;;19.63;12.20;;;;;;;10.44;74.45;95901.88;4986408;28;20173;-71
2024/03/15 00:37:08;;;;;;;17.83;9.90;;;;;;;10.31;74.60;95901.66;4986129;28;20707;-71
2024/03/15 00:39:35;;;;;;;11.13;9.30;;;;;;;10.37;74.44;95898.75;4986148;28;20251;-71
2024/03/15 00:42:03;;;;;;;9.53;8.53;;;;;;;10.27;74.25;95898.31;4986009;28;20408;-71
2024/03/15 00:44:29;;;;;;;15.30;8.93;;;;;;;10.35;74.40;95901.44;4985202;28;20420;-75
2024/03/15 00:46:54;;;;;;;10.90;9.20;;;;;;;10.23;74.51;95907.28;4985542;28;20440;-73
2024/03/15 00:49:20;;;;;;;9.67;8.00;;;;;;;10.29;74.63;95898.25;4986203;28;20185;-70
2024/03/15 00:51:46;;;;;;;10.17;9.03;;;;;;;10.28;74.68;95897.44;4985958;28;20287;-70
2024/03/15 00:54:12;;;;;;;9.30;8.40;;;;;;;10.18;74.67;95898.75;4985908;28;20177;-72
2024/03/15 00:56:38;;;;;;;10.60;8.90;;;;;;;10.14;74.80;95892.84;4985613;28;20229;-73
2024/03/15 00:59:03;;;;;;;9.03;8.13;;;;;;;10.18;74.81;95894.41;4985913;28;20508;-72
2024/03/15 01:01:29;;;;;;;13.10;7.97;;;;;;;10.12;74.82;95893.84;4985996;28;20173;-71
2024/03/15 01:03:54;;;;;;;9.47;8.50;;;;;;;10.14;74.86;95890.22;4985930;28;20671;-71
2024/03/15 01:06:19;;;;;;;8.97;8.17;;;;;;;10.13;74.65;95891.16;4985399;28;20200;-72
2024/03/15 01:08:45;;;;;;;11.10;9.13;;;;;;;10.04;75.41;95885.50;4985354;28;20553;-70
2024/03/15 01:11:10;;;;;;;9.83;8.60;;;;;;;10.04;74.71;95888.13;4985604;28;20236;-70
2024/03/15 01:13:36;;;;;;;10.37;9.27;;;;;;;9.99;74.94;95890.97;4988359;28;20260;-70
2024/03/15 01:16:02;;;;;;;10.53;8.73;;;;;;;10.11;74.40;95890.38;4988937;28;20789;-71
2024/03/15 01:18:27;;;;;;;9.87;8.87;;;;;;;10.01;74.46;95890.91;4989054;28;20200;-70
2024/03/15 01:20:53;;;;;;;9.90;8.80;;;;;;;9.90;74.68;95889.69;4988941;28;20503;-70
2024/03/15 01:23:18;;;;;;;9.40;8.27;;;;;;;9.88;74.87;95890.69;4988790;28;20208;-71
2024/03/15 01:25:44;;;;;;;8.80;8.00;;;;;;;9.90;74.62;95894.06;4989143;28;20200;-71
2024/03/15 01:28:10;;;;;;;10.03;8.33;;;;;;;9.91;74.79;95885.28;4988759;28;20223;-71
2024/03/15 01:30:35;;;;;;;9.93;7.63;;;;;;;9.93;74.51;95880.81;4988914;28;21306;-69
2024/03/15 01:33:00;;;;;;;10.03;8.47;;;;;;;9.85;74.77;95889.06;4988924;28;20375;-71
2024/03/15 01:35:35;;;;;;;13.10;8.17;;;;;;;9.89;74.64;95881.88;4989366;28;20203;-70
2024/03/15 01:38:03;;;;;;;8.73;7.57;;;;;;;9.86;74.39;95885.50;4989604;28;20509;-73
2024/03/15 01:40:30;;;;;;;10.10;8.07;;;;;;;9.83;74.69;95882.19;4988960;28;20424;-71
2024/03/15 01:42:56;;;;;;;8.73;8.00;;;;;;;9.82;74.56;95875.25;4988840;28;20427;-72
2024/03/15 01:45:21;;;;;;;11.67;7.30;;;;;;;9.74;74.96;95886.09;4988834;28;20415;-72
2024/03/15 01:47:46;;;;;;;9.93;8.87;;;;;;;9.75;74.89;95872.91;4988686;28;20197;-71
2024/03/15 01:50:13;;;;;;;10.30;9.40;;;;;;;9.70;75.45;95871.44;4988555;28;20304;-71
2024/03/15 01:52:41;;;;;;;10.17;8.43;;;;;;;9.63;75.29;95876.13;4988411;28;20179;-71
2024/03/15 01:55:07;;;;;;;11.90;8.00;;;;;;;9.71;74.84;95873.16;4988245;28;21237;-71
2024/03/15 01:57:33;;;;;;;10.23;9.20;;;;;;;9.77;74.60;95875.47;4988887;28;20566;-70
2024/03/15 01:59:59;;;;;;;9.10;8.20;;;;;;;9.59;75.07;95874.63;4988593;28;20181;-70
2024/03/15 02:02:27;;;;;;;9.80;7.80;;;;;;;9.63;75.25;95870.06;4987899;28;20424;-73
2024/03/15 02:04:55;;;;;;;10.00;7.77;;;;;;;9.54;75.02;95866.97;4988119;28;20559;-71
2024/03/15 02:07:27;;;;;;;10.60;8.43;;;;;;;9.62;74.76;95877.06;4988315;28;20486;-72
2024/03/15 02:09:53;;;;;;;9.43;8.53;;;;;;;9.47;75.16;95875.19;4988395;28;20412;-70
2024/03/15 02:12:19;;;;;;;11.63;8.50;;;;;;;9.64;75.03;95874.38;4988270;28;20419;-70
2024/03/15 02:14:44;;;;;;;13.03;9.13;;;;;;;9.69;74.31;95869.78;4988340;28;21138;-70
2024/03/15 02:17:10;;;;;;;7.73;7.03;;;;;;;9.60;74.31;95876.28;4987730;28;20197;-72
2024/03/15 02:19:35;;;;;;;9.63;8.60;;;;;;;9.58;74.64;95874.66;4988370;28;20247;-72
2024/03/15 02:22:01;;;;;;;10.37;8.27;;;;;;;9.60;74.62;95878.91;4987640;28;20669;-71
2024/03/15 02:24:27;;;;;;;10.90;8.47;;;;;;;9.55;74.45;95873.06;4987525;28;20262;-71
2024/03/15 02:26:52;;;;;;;8.50;7.70;;;;;;;9.63;74.38;95870.91;4986995;28;20432;-69
2024/03/15 02:29:18;;;;;;;9.47;8.17;;;;;;;9.50;74.37;95868.03;4987639;28;20181;-71
2024/03/15 02:31:46;;;;;;;9.20;8.30;;;;;;;9.61;74.14;95871.91;4987411;28;20542;-70
2024/03/15 02:34:13;;;;;;;10.40;8.20;;;;;;;9.47;74.87;95881.28;4987768;28;20180;-71
2024/03/15 02:36:40;;;;;;;9.33;8.33;;;;;;;9.60;74.01;95875.44;4970154;28;20439;-71
2024/03/15 02:39:07;;;;;;;10.60;9.17;;;;;;;9.51;74.30;95882.81;4987873;28;20493;-71
2024/03/15 02:41:33;;;;;;;9.17;8.20;;;;;;;9.55;73.74;95886.16;4987186;28;20900;-69
2024/03/15 02:43:59;;;;;;;9.13;7.70;;;;;;;9.50;74.07;95881.13;4987634;28;20519;-71
2024/03/15 02:46:25;;;;;;;9.93;8.87;;;;;;;9.39;74.29;95883.41;4989088;28;21043;-71
2024/03/15 02:48:51;;;;;;;8.90;8.00;;;;;;;9.37;74.45;95885.25;4987849;28;20412;-71
2024/03/15 02:51:16;;;;;;;11.30;9.27;;;;;;;9.37;74.69;95884.41;4987296;28;20240;-70
2024/03/15 02:53:43;;;;;;;9.13;8.23;;;;;;;9.36;74.61;95887.97;4987772;28;20184;-72
2024/03/15 02:56:09;;;;;;;8.93;8.13;;;;;;;9.37;74.77;95882.63;4993181;28;20311;-72
2024/03/15 02:58:36;;;;;;;7.80;7.00;;;;;;;9.43;74.54;95886.75;4993484;28;20440;-71
2024/03/15 03:01:01;;;;;;;9.00;8.10;;;;;;;9.44;74.35;95886.66;4992059;28;20412;-70
2024/03/15 03:03:27;;;;;;;8.90;8.00;;;;;;;9.38;74.59;95886.97;4990090;28;20999;-71
2024/03/15 03:05:52;;;;;;;8.90;7.60;;;;;;;9.43;74.77;95884.13;4986744;28;20205;-70
2024/03/15 03:08:18;;;;;;;19.33;9.13;;;;;;;9.44;74.75;95889.28;4986395;28;20219;-70
2024/03/15 03:10:44;;;;;;;9.17;8.30;;;;;;;9.48;74.54;95897.84;4986266;28;20288;-71
2024/03/15 03:13:09;;;;;;;8.97;8.07;;;;;;;9.50;74.34;95886.38;4986208;28;20184;-72
2024/03/15 03:15:35;;;;;;;9.20;8.13;;;;;;;9.55;74.54;95896.63;4986273;28;20179;-71
2024/03/15 03:18:01;;;;;;;10.17;7.63;;;;;;;9.46;74.45;95895.28;4986617;28;20185;-72
2024/03/15 03:20:28;;;;;;;8.70;7.80;;;;;;;9.61;74.25;95900.72;4986453;28;20281;-71
2024/03/15 03:22:54;;;;;;;8.23;7.37;;;;;;;9.52;74.32;95897.63;4986088;28;20169;-71
2024/03/15 03:25:20;;;;;;;8.20;7.40;;;;;;;9.59;74.62;95897.31;4986450;28;20408;-71
2024/03/15 03:27:45;;;;;;;13.00;8.07;;;;;;;9.52;74.36;95889.78;4985949;28;20207;-71
2024/03/15 03:30:11;;;;;;;9.70;7.53;;;;;;;9.57;74.27;95896.53;4986041;28;20887;-71
2024/03/15 03:32:37;;;;;;;10.03;7.97;;;;;;;9.53;74.56;95899.31;4985232;28;20188;-71
2024/03/15 03:35:04;;;;;;;9.00;8.10;;;;;;;9.58;74.48;95896.47;4986059;28;20177;-69
2024/03/15 03:37:34;;;;;;;8.83;7.63;;;;;;;9.52;74.35;95902.88;4986642;28;21172;-72
2024/03/15 03:39:59;;;;;;;9.00;7.43;;;;;;;9.52;74.87;95902.88;4986678;28;20424;-71
2024/03/15 03:42:26;;;;;;;10.13;8.00;;;;;;;9.47;74.58;95902.25;4986657;28;20420;-72
2024/03/15 03:44:52;;;;;;;9.03;7.40;;;;;;;9.51;74.22;95898.53;4986657;28;20169;-70
2024/03/15 03:47:17;;;;;;;13.53;8.63;;;;;;;9.48;74.32;95903.09;4987021;28;20440;-71
2024/03/15 03:49:43;;;;;;;15.43;9.53;;;;;;;9.44;74.75;95896.28;4987261;28;20259;-71
2024/03/15 03:52:08;;;;;;;9.97;8.07;;;;;;;9.29;75.14;95897.88;4990140;28;20217;-71
2024/03/15 03:54:34;;;;;;;10.20;9.13;;;;;;;9.44;74.48;95898.91;4990508;28;20193;-71
2024/03/15 03:57:00;;;;;;;12.10;8.40;;;;;;;9.37;75.09;95897.50;4990483;28;20203;-72
2024/03/15 03:59:28;;;;;;;8.80;8.00;;;;;;;9.32;75.09;95898.56;4989579;28;20420;-71
2024/03/15 04:01:53;;;;;;;10.40;9.00;;;;;;;9.29;74.73;95898.72;4989505;28;20177;-71
2024/03/15 04:04:21;;;;;;;8.80;8.00;;;;;;;9.41;74.27;95899.06;4987107;28;20424;-71
2024/03/15 04:06:49;;;;;;;9.30;8.50;;;;;;;9.30;74.66;95905.63;4985726;28;20331;-71
2024/03/15 04:09:16;;;;;;;9.10;8.03;;;;;;;9.29;74.49;95910.97;4985705;28;20427;-71
2024/03/15 04:11:42;;;;;;;11.20;8.47;;;;;;;9.29;74.60;95910.97;4985449;28;20459;-70
2024/03/15 04:14:08;;;;;;;9.00;7.90;;;;;;;9.29;74.74;95917.03;4985748;28;20531;-71
2024/03/15 04:16:34;;;;;;;8.57;7.77;;;;;;;9.29;74.48;95913.56;4985826;28;20189;-71
2024/03/15 04:18:59;;;;;;;11.33;8.27;;;;;;;9.21;74.97;95916.56;4985881;28;20442;-70
2024/03/15 04:21:25;;;;;;;9.73;8.77;;;;;;;9.16;74.78;95923.75;4985888;28;20525;-70
2024/03/15 04:23:53;;;;;;;10.10;8.53;;;;;;;9.15;75.08;95926.47;4985706;28;20177;-71
2024/03/15 04:26:21;;;;;;;9.53;8.43;;;;;;;9.08;75.01;95925.88;4985429;28;20816;-72
2024/03/15 04:28:48;;;;;;;9.60;8.27;;;;;;;9.19;75.01;95926.25;4985497;28;20490;-71
2024/03/15 04:31:16;;;;;;;9.80;8.20;;;;;;;9.27;74.49;95925.88;4985182;28;20463;-72
2024/03/15 04:33:42;;;;;;;9.20;8.30;;;;;;;9.06;75.40;95925.94;4985400;28;20428;-71
2024/03/15 04:36:07;;;;;;;8.70;7.50;;;;;;;9.02;75.74;95931.38;4986000;28;20439;-70
2024/03/15 04:38:32;;;;;;;9.80;8.80;;;;;;;9.04;75.19;95925.16;4985854;28;20207;-71
2024/03/15 04:41:09;;;;;;;10.10;9.00;;;;;;;9.17;74.30;95927.25;4985129;28;20219;-71
2024/03/15 04:43:35;;;;;;;13.33;8.57;;;;;;;9.13;75.10;95929.13;4985756;28;20180;-73
2024/03/15 04:46:00;;;;;;;8.97;8.17;;;;;;;9.01;75.06;95929.69;4985573;28;20446;-70
2024/03/15 04:48:25;;;;;;;8.53;7.67;;;;;;;9.02;74.82;95927.00;4985778;28;20416;-70
2024/03/15 04:50:51;;;;;;;9.27;7.80;;;;;;;9.01;75.08;95924.47;4989131;28;20712;-71
2024/03/15 04:53:16;;;;;;;9.50;8.13;;;;;;;9.03;74.83;95928.72;4989476;28;20545;-71
2024/03/15 04:55:42;;;;;;;10.87;9.57;;;;;;;8.94;74.92;95931.72;4989606;28;20280;-71
2024/03/15 04:58:11;;;;;;;14.50;8.90;;;;;;;8.88;75.91;95932.00;4989262;28;20264;-69
2024/03/15 05:00:37;;;;;;;15.27;10.30;;;;;;;8.82;76.08;95935.75;4989366;28;20219;-72
2024/03/15 05:03:03;;;;;;;10.00;9.00;;;;;;;8.90;75.58;95927.56;4988953;28;20451;-71
2024/03/15 05:05:29;;;;;;;9.20;8.30;;;;;;;8.92;75.58;95932.72;4989067;28;20843;-71
2024/03/15 05:07:55;;;;;;;9.67;8.03;;;;;;;8.85;75.72;95935.59;4989002;28;20416;-71
2024/03/15 05:10:21;;;;;;;8.90;8.00;;;;;;;8.85;75.17;95930.38;4970917;28;20335;-69
2024/03/15 05:12:48;;;;;;;9.03;7.67;;;;;;;8.84;76.00;95938.31;4988717;28;20260;-69
2024/03/15 05:15:13;;;;;;;10.50;9.30;;;;;;;8.85;75.60;95937.38;4988879;28;20649;-71
2024/03/15 05:17:39;;;;;;;12.30;7.90;;;;;;;8.92;74.99;95938.81;4988759;28;20440;-70
2024/03/15 05:20:12;;;;;;;10.00;7.87;;;;;;;8.89;75.54;95942.41;4988612;28;20188;-71
2024/03/15 05:22:37;;;;;;;12.43;8.40;;;;;;;8.88;75.19;95945.06;4971057;28;20196;-71
2024/03/15 05:25:07;;;;;;;17.43;8.73;;;;;;;8.91;75.54;95944.97;4989020;28;20499;-71
2024/03/15 05:27:32;;;;;;;10.70;8.77;;;;;;;8.87;75.44;95946.00;4988711;28;20633;-70
2024/03/15 05:29:59;;;;;;;9.13;7.80;;;;;;;8.81;75.70;95948.88;4988583;28;20422;-70
2024/03/15 05:32:26;;;;;;;10.40;9.20;;;;;;;8.80;75.08;95944.59;4988754;28;20583;-70
2024/03/15 05:34:51;;;;;;;10.37;8.60;;;;;;;8.85;75.14;95940.84;4988975;28;20530;-70
2024/03/15 05:37:16;;;;;;;12.20;8.50;;;;;;;8.81;75.09;95939.28;4988695;28;20543;-71
2024/03/15 05:39:42;;;;;;;11.20;9.10;;;;;;;8.90;75.24;95943.25;4988491;28;20192;-71
2024/03/15 05:42:07;;;;;;;13.93;9.47;;;;;;;8.91;75.10;95944.97;4988116;28;20658;-69
2024/03/15 05:44:33;;;;;;;10.07;8.20;;;;;;;8.84;75.58;95946.16;4988841;28;20279;-70
2024/03/15 05:46:59;;;;;;;11.80;8.40;;;;;;;8.82;75.34;95948.81;4988466;28;20201;-70
2024/03/15 05:49:24;;;;;;;10.33;8.70;;;;;;;8.83;75.32;95947.06;4986953;28;20426;-69
2024/03/15 05:51:50;;;;;;;12.40;8.37;;;;;;;8.96;74.29;95947.38;4979576;28;20228;-71
2024/03/15 05:54:15;;;;;;;9.23;8.33;;;;;;;8.92;74.35;95945.81;4971817;28;20187;-70
2024/03/15 05:56:40;;;;;;;10.23;8.30;;;;;;;8.99;74.71;95942.84;4976511;28;20220;-71
2024/03/15 05:59:07;;;;;;;13.33;8.93;;;;;;;9.14;73.94;95948.31;4987340;28;20260;-71
2024/03/15 06:01:32;;;;;;;12.00;9.40;;;;;;;9.24;73.27;95946.97;4986413;28;20185;-71
2024/03/15 06:03:57;;;;;;;11.67;8.27;;;;;;;9.39;73.34;95943.63;4987452;28;20502;-68
2024/03/15 06:06:25;;;;;;;10.27;8.00;;;;;;;9.27;73.08;95949.44;4970164;28;20352;-71
2024/03/15 06:08:50;;;;;;;10.27;7.57;;;;;;;9.67;71.66;95952.81;4988921;28;20271;-72
2024/03/15 06:11:16;;;;;;;11.43;7.90;;;;;;;10.15;70.08;95943.50;4989232;28;20495;-70
2024/03/15 06:13:41;;;;;;;19.30;8.87;;;;;;;10.02;69.96;95945.03;4988551;28;20547;-73
2024/03/15 06:16:10;;;;;;;67.93;13.63;;;;;;;9.81;70.75;95954.78;4988146;28;20807;-70
2024/03/15 06:18:36;;;;;;;18.57;8.97;;;;;;;9.91;70.60;95954.25;4989019;28;20173;-70
2024/03/15 06:21:02;;;;;;;9.63;8.10;;;;;;;9.76;70.94;95955.00;4986660;28;20458;-72
2024/03/15 06:23:28;;;;;;;12.20;7.90;;;;;;;9.72;71.18;95953.44;4986158;28;20581;-66
2024/03/15 06:25:53;;;;;;;8.90;4.43;;;;;;;10.91;85.60;95951.03;4986673;28;20443;-68
2024/03/15 06:28:19;;;;;;;11.37;9.13;;;;;;;10.35;69.84;95953.03;4986825;28;20224;-69
2024/03/15 06:30:46;;;;;;;12.60;8.70;;;;;;;9.99;71.00;95958.28;4987206;28;20684;-70
2024/03/15 06:33:13;;;;;;;10.03;8.10;;;;;;;9.71;72.16;95960.47;4984246;28;20428;-69
2024/03/15 06:35:39;;;;;;;9.63;8.10;;;;;;;10.16;71.03;95961.78;4985509;28;20421;-69
2024/03/15 06:38:09;;;;;;;11.50;8.87;;;;;;;10.06;71.40;95962.31;4997658;28;20458;-69
2024/03/15 06:43:42;;;;;;;14.63;9.63;;;;;;;9.93;72.66;95962.91;4976966;28;20440;-69
2024/03/15 06:46:20;;;;;;;9.77;8.07;;;;;;;9.88;72.57;95964.91;4995930;28;20451;-69
2024/03/15 06:49:12;;;;;;;16.13;9.80;;;;;;;9.85;72.97;95969.44;4995313;28;20438;-70
2024/03/15 06:54:22;;;;;;;10.47;9.47;;;;;;;9.84;72.88;95973.81;4983836;28;20416;-72
2024/03/15 06:56:47;;;;;;;10.03;8.83;;;;;;;9.88;72.63;95974.53;4990355;28;20456;-72
2024/03/15 06:59:13;;;;;;;11.00;8.83;;;;;;;9.81;72.67;95976.59;5012941;28;20184;-71
2024/03/15 07:01:38;;;;;;;11.37;8.40;;;;;;;9.70;73.06;95971.00;5000504;28;20194;-70
2024/03/15 07:04:07;;;;;;;11.53;8.70;;;;;;;9.77;73.10;95984.69;4983160;28;20189;-71
2024/03/15 07:06:33;;;;;;;13.00;9.37;;;;;;;9.76;73.37;95981.22;4983833;28;20688;-72
2024/03/15 07:08:59;;;;;;;10.73;9.67;;;;;;;9.81;72.78;95978.38;4981160;28;20467;-71
2024/03/15 07:11:34;;;;;;;10.63;8.93;;;;;;;9.74;73.39;95986.53;4996814;28;20189;-73
2024/03/15 07:14:04;;;;;;;13.20;9.10;;;;;;;9.81;72.98;95984.47;5001137;28;20427;-73
2024/03/15 07:16:29;;;;;;;13.63;8.93;;;;;;;9.88;72.99;95985.03;4993350;28;21328;-71
2024/03/15 07:19:01;;;;;;;11.10;9.00;;;;;;;9.93;72.89;95989.13;4966736;28;20471;-71
2024/03/15 07:21:26;;;;;;;9.90;8.90;;;;;;;10.01;72.66;95988.75;4980221;28;20288;-71
2024/03/15 07:23:52;;;;;;;10.43;9.37;;;;;;;10.04;72.57;95988.63;4981960;28;20878;-70
2024/03/15 07:26:18;;;;;;;11.27;8.77;;;;;;;10.16;72.26;96000.28;4982452;28;20191;-71
2024/03/15 07:28:46;;;;;;;13.20;9.50;;;;;;;10.08;72.58;95999.78;5003441;28;20203;-72
2024/03/15 07:31:12;;;;;;;11.17;8.53;;;;;;;10.22;72.41;96004.34;4995820;28;20212;-71
2024/03/15 07:33:37;;;;;;;19.83;9.47;;;;;;;10.31;71.85;95999.53;5004726;28;20450;-71
2024/03/15 07:36:07;;;;;;;10.87;8.80;;;;;;;10.72;70.62;95988.75;4990877;28;20199;-69
2024/03/15 07:38:34;;;;;;;15.50;8.87;;;;;;;11.65;67.68;95990.84;4999074;28;20177;-70
2024/03/15 07:41:00;;;;;;;16.17;9.00;;;;;;;12.39;64.84;95985.88;4981442;28;20442;-69
2024/03/15 07:43:26;;;;;;;14.67;9.80;;;;;;;12.89;63.13;95995.22;4984255;28;20431;-71
2024/03/15 07:45:52;;;;;;;12.00;9.87;;;;;;;13.42;61.18;95992.97;4980806;28;20209;-71
2024/03/15 07:48:18;;;;;;;12.00;8.97;;;;;;;13.73;60.00;95994.53;4979499;28;20463;-69
2024/03/15 07:50:44;;;;;;;11.27;8.13;;;;;;;14.12;58.74;95991.13;4981067;28;20339;-70
2024/03/15 07:53:09;;;;;;;10.27;7.80;;;;;;;14.50;57.73;95982.50;4979662;28;20517;-71
2024/03/15 07:55:35;;;;;;;8.73;7.83;;;;;;;15.08;56.25;95987.50;4985345;28;20187;-71
2024/03/15 07:58:02;;;;;;;10.43;7.13;;;;;;;15.22;55.23;95988.25;4983372;28;20272;-72
2024/03/15 08:00:28;;;;;;;14.37;8.00;;;;;;;15.32;55.25;95987.59;4980429;28;20431;-72
2024/03/15 08:02:56;;;;;;;11.20;7.67;;;;;;;15.42;54.47;95989.50;4983263;28;20444;-72
2024/03/15 08:05:27;;;;;;;10.03;7.33;;;;;;;15.71;53.12;95985.78;4980922;28;20519;-72
2024/03/15 08:07:53;;;;;;;9.10;8.20;;;;;;;15.93;52.76;95985.13;4982743;28;21344;-71
2024/03/15 08:10:20;;;;;;;10.93;7.60;;;;;;;15.96;52.39;95987.53;4981818;28;20507;-71
2024/03/15 08:12:45;;;;;;;7.90;6.80;;;;;;;16.10;52.33;95990.03;4983145;28;20541;-72
2024/03/15 08:15:13;;;;;;;8.27;6.13;;;;;;;16.12;52.03;95990.75;4985100;28;20522;-72
2024/03/15 08:17:39;;;;;;;8.40;5.70;;;;;;;16.07;51.75;95992.91;4990945;28;20217;-70
2024/03/15 08:20:08;;;;;;;14.10;7.50;;;;;;;16.59;51.13;95990.88;4984111;28;20436;-71
2024/03/15 08:22:34;;;;;;;7.67;6.97;;;;;;;16.91;49.63;95989.34;4983819;28;20180;-72
2024/03/15 08:25:00;;;;;;;8.17;6.70;;;;;;;17.07;48.77;95989.00;4982184;28;20446;-72
2024/03/15 08:27:29;;;;;;;7.20;6.10;;;;;;;17.20;48.58;95990.75;4989184;28;20455;-73
2024/03/15 08:29:56;;;;;;;7.40;5.80;;;;;;;17.45;47.75;95987.84;4990427;28;20183;-73
2024/03/15 08:32:22;;;;;;;6.50;5.80;;;;;;;17.34;47.99;95996.66;4997025;28;20514;-69
2024/03/15 08:34:48;;;;;;;7.10;5.50;;;;;;;17.10;48.73;95996.75;5004149;28;20522;-71
2024/03/15 08:37:14;;;;;;;9.87;6.60;;;;;;;17.34;48.60;95990.50;5009129;28;20208;-69
2024/03/15 08:39:39;;;;;;;8.50;7.57;;;;;;;17.77;47.45;95987.97;4999888;28;20447;-68
2024/03/15 08:42:05;;;;;;;11.20;7.30;;;;;;;18.14;46.85;95985.06;4992912;28;20281;-67
2024/03/15 08:44:32;;;;;;;12.07;6.73;;;;;;;18.56;46.18;95987.00;4993780;28;20181;-72
2024/03/15 08:46:57;;;;;;;6.87;5.97;;;;;;;18.46;45.95;95988.72;4994335;28;20196;-73
2024/03/15 08:49:26;;;;;;;7.10;6.37;;;;;;;18.82;45.67;95984.84;4999789;28;20961;-72
2024/03/15 08:51:51;;;;;;;9.03;8.13;;;;;;;18.52;45.63;95983.75;4997424;28;20730;-70
2024/03/15 08:54:18;;;;;;;7.60;6.90;;;;;;;18.46;46.48;95983.41;5000284;28;20456;-71
2024/03/15 08:56:44;;;;;;;7.60;6.60;;;;;;;18.71;45.96;95976.91;4992658;28;20715;-72
2024/03/15 08:59:10;;;;;;;10.33;7.50;;;;;;;18.93;45.34;95979.50;4988910;28;20497;-69
2024/03/15 09:01:36;;;;;;;8.10;6.37;;;;;;;18.78;45.24;95984.28;4988723;28;20419;-69
2024/03/15 09:04:04;;;;;;;10.10;6.87;;;;;;;18.92;45.05;95968.97;4988583;28;20185;-72
2024/03/15 09:06:33;;;;;;;7.50;6.70;;;;;;;18.97;44.95;95982.75;4996522;28;20203;-70
2024/03/15 09:09:09;;;;;;;9.30;7.00;;;;;;;18.75;45.30;95979.19;4998266;28;20591;-71
2024/03/15 09:11:35;;;;;;;7.10;6.10;;;;;;;18.82;45.44;95980.38;4993222;28;20463;-70
2024/03/15 09:14:00;;;;;;;8.97;6.40;;;;;;;19.01;45.25;95978.84;5006052;28;20433;-70
2024/03/15 09:16:27;;;;;;;10.70;6.80;;;;;;;19.32;44.83;95977.06;4999527;28;20929;-72
2024/03/15 09:18:52;;;;;;;9.13;6.27;;;;;;;19.42;44.72;95966.50;4989073;28;20672;-70
2024/03/15 09:21:20;;;;;;;7.50;6.70;;;;;;;19.54;44.34;95972.59;4988121;28;20419;-71
2024/03/15 09:23:45;;;;;;;13.57;6.20;;;;;;;19.70;43.89;95972.09;4991160;28;20242;-70
2024/03/15 09:26:11;;;;;;;8.33;7.53;;;;;;;19.53;44.04;95966.38;4983133;28;20457;-71
2024/03/15 09:28:43;;;;;;;14.30;7.60;;;;;;;19.70;43.73;95966.78;4984900;28;20190;-70
2024/03/15 09:31:09;;;;;;;8.30;6.23;;;;;;;19.80;43.44;95965.84;4981720;28;20797;-70
2024/03/15 09:33:37;;;;;;;8.10;6.60;;;;;;;19.74;43.18;95962.88;4985254;28;20757;-72
2024/03/15 09:36:04;;;;;;;9.77;6.87;;;;;;;19.53;43.60;95963.72;4980530;28;20986;-70
2024/03/15 09:38:33;;;;;;;7.10;6.03;;;;;;;19.49;43.77;95967.66;4970854;28;20470;-69
2024/03/15 09:40:58;;;;;;;6.97;5.80;;;;;;;19.57;43.83;95964.31;4962303;28;20478;-72
2024/03/15 09:43:26;;;;;;;10.10;6.40;;;;;;;19.52;43.83;95962.06;4986662;28;20435;-72
2024/03/15 09:45:53;;;;;;;9.00;6.20;;;;;;;19.42;43.60;95953.19;4986236;28;20319;-70
2024/03/15 09:48:21;;;;;;;7.73;4.47;;;;;;;19.51;43.63;95959.53;4988926;28;20463;-71
2024/03/15 09:50:51;;;;;;;7.33;6.00;;;;;;;19.69;43.13;95951.78;4988056;28;20471;-73
2024/03/15 09:53:17;;;;;;;5.77;5.27;;;;;;;19.83;43.12;95960.25;4984522;28;20424;-72
2024/03/15 09:55:42;;;;;;;6.37;5.40;;;;;;;19.72;43.20;95967.50;4987577;28;20450;-70
2024/03/15 09:58:10;;;;;;;8.37;4.70;;;;;;;19.82;42.60;95955.06;4987434;28;20176;-70
2024/03/15 10:00:38;;;;;;;10.27;5.53;;;;;;;19.89;42.83;95956.22;4983551;28;20199;-69
2024/03/15 10:03:04;;;;;;;6.97;5.47;;;;;;;19.62;43.49;95948.78;4987210;28;20431;-73
2024/03/15 10:05:30;;;;;;;6.20;5.60;;;;;;;20.02;42.97;95951.47;4987821;28;20433;-73
2024/03/15 10:07:56;;;;;;;7.53;5.20;;;;;;;19.87;42.90;95950.19;4978976;28;21088;-72
2024/03/15 10:10:21;;;;;;;5.43;4.47;;;;;;;19.87;42.83;95951.03;4989438;28;21008;-71
2024/03/15 10:12:48;;;;;;;6.80;4.63;;;;;;;20.01;42.67;95957.78;4996187;28;20424;-70
2024/03/15 10:15:16;;;;;;;8.80;5.40;;;;;;;20.03;42.63;95950.50;4994923;28;20189;-70
2024/03/15 10:17:43;;;;;;;5.27;4.67;;;;;;;19.91;42.62;95942.75;4994850;28;20967;-70
2024/03/15 10:20:33;;;;;;;5.33;4.03;;;;;;;19.95;42.79;95942.34;4984294;28;20435;-70
2024/03/15 10:22:58;;;;;;;8.80;4.60;;;;;;;20.02;42.53;95943.47;4992105;28;21306;-68
2024/03/15 10:25:25;;;;;;;8.40;4.77;;;;;;;19.97;42.72;95945.72;4996605;28;20432;-71
2024/03/15 10:27:55;;;;;;;5.30;4.47;;;;;;;20.09;42.54;95944.63;4983892;28;20787;-74
2024/03/15 10:30:23;;;;;;;6.83;4.37;;;;;;;20.21;42.44;95940.00;4998378;28;20428;-74
2024/03/15 10:32:53;;;;;;;5.10;3.67;;;;;;;20.21;42.23;95939.16;4986653;28;20454;-70
2024/03/15 10:35:20;;;;;;;6.33;4.07;;;;;;;20.30;41.67;95938.34;4986971;28;20919;-70
2024/03/15 10:37:50;;;;;;;7.17;6.43;;;;;;;20.37;41.29;95936.81;4988093;28;20463;-70
2024/03/15 10:40:20;;;;;;;9.60;4.87;;;;;;;20.09;42.16;95935.78;4988021;28;20424;-74
2024/03/15 10:42:57;;;;;;;8.47;3.80;;;;;;;20.07;42.07;95932.41;4987552;28;20788;-73
2024/03/15 10:45:24;;;;;;;5.90;5.33;;;;;;;20.32;41.63;95932.88;4987754;28;20411;-72
2024/03/15 10:47:50;;;;;;;4.83;3.90;;;;;;;20.10;41.85;95929.47;4987126;28;20435;-73
2024/03/15 10:50:21;;;;;;;7.07;3.57;;;;;;;20.33;41.26;95930.06;4987395;28;20412;-73
2024/03/15 10:52:48;;;;;;;5.03;3.70;;;;;;;20.30;41.33;95925.84;4987393;28;20420;-73
2024/03/15 10:55:13;;;;;;;5.33;3.40;;;;;;;20.50;41.91;95925.84;4987526;28;20444;-72
2024/03/15 10:57:39;;;;;;;13.53;4.00;;;;;;;20.27;41.15;95923.47;4987789;28;20874;-72
2024/03/15 11:00:14;;;;;;;7.50;3.73;;;;;;;20.10;41.78;95929.47;4987907;28;20172;-72
2024/03/15 11:02:41;;;;;;;4.30;3.70;;;;;;;20.43;40.98;95920.28;4987866;28;20805;-72
2024/03/15 11:05:09;;;;;;;5.83;3.80;;;;;;;20.46;40.52;95922.66;4987818;28;20416;-71
2024/03/15 11:07:35;;;;;;;10.73;4.13;;;;;;;20.51;40.03;95923.06;4987935;28;20428;-73
2024/03/15 11:10:06;;;;;;;11.17;4.20;;;;;;;20.48;40.30;95918.03;4987798;28;20408;-71
2024/03/15 11:12:38;;;;;;;5.83;3.40;;;;;;;19.94;41.35;95919.38;4987154;28;20181;-73
2024/03/15 11:15:17;;;;;;;3.57;2.80;;;;;;;20.46;40.65;95919.97;4987258;28;20415;-72
2024/03/15 11:17:43;;;;;;;12.10;3.87;;;;;;;20.70;39.73;95922.25;4986983;28;20770;-72
2024/03/15 11:20:12;;;;;;;5.50;3.20;;;;;;;20.75;40.22;95919.16;4987712;28;20416;-71
2024/03/15 11:22:38;;;;;;;5.60;3.00;;;;;;;20.64;40.16;95917.47;4988871;28;20210;-71
2024/03/15 11:25:05;;;;;;;7.90;3.90;;;;;;;20.58;40.22;95928.72;4987644;28;20420;-70
2024/03/15 11:27:31;;;;;;;7.27;5.20;;;;;;;20.64;39.97;95922.81;4988310;28;20335;-71
2024/03/15 11:29:57;;;;;;;5.53;3.70;;;;;;;20.61;39.95;95925.75;4969417;28;20550;-72
2024/03/15 11:32:23;;;;;;;10.00;5.23;;;;;;;20.20;40.50;95919.69;4986412;28;20566;-71
2024/03/15 11:34:49;;;;;;;6.30;3.20;;;;;;;19.59;42.22;95925.94;4986890;28;20472;-71
2024/03/15 11:37:22;;;;;;;11.13;3.27;;;;;;;19.58;42.11;95918.09;4987115;28;20200;-71